Rome, Georgia
Current Conditions -  °F | °C
As of 10:53 PM on Friday 19 Dec 2014 (Local Time) from KRMG Reporting Station
Light Rain Light Rain  
Wind Chill: 42°   Ceiling: 7000
Heat Index: 42°   Visibility: 10mi
Dew Point: 34°   Wind: 3mph
Humidity: 73%   Direction: 260°W
Pressure: 30.18"   Gusts: NA
Location:  34.25°N, 85.17°W
Report Text: KRMG 200353Z AUTO 26003KT 10SM -RA OVC070 06/01 A3018 RMK AO2 RAE07B30 SLP220 P0000 T00560011
Loading
Personal Weather Stations






























Interactive Weather Map New forecast layout! Learn more

10-Day Weather Forecast

Advertisements
Track Severe Weather on mobile